Miraflores de la Sierra, Spain
Current Conditions -  °F | °C
As of 12:00 PM on Monday 20 Oct 2014 (Local Time) from LEMD Reporting Station
Clear Clear  
Wind Chill: 68°   Ceiling: Unl
Heat Index: 68°   Visibility: 6mi
Dew Point: 50°   Wind: 6mph
Humidity: 52%   Direction: 350°N
Pressure: 30.27"   Gusts: NA
Location:  40.82°N, 3.76°W
Report Text: LEMD 201000Z 35005KT CAVOK 20/10 Q1025 NOSIG
Loading
Personal Weather Stations






























Interactive Weather Map
Tropical Storm Tracking
New forecast layout! Learn more

10-Day Weather Forecast

Advertisements
Track Severe Weather on mobile